Strona główna
METAR-TAF:

METAR-TAF

Lotnisko :

Port lotniczy Heringsdorf

Heringsdorf, Niemcy

Szerokość geograficzna: 53-53N, Długość geograficzna: 014-09E, wysokość: 28 m

Aktualna obserwacja pogody

Raport powstał 21 godziny i 27 minut temu, godzina 14:50 UTC
Wiatr 1 kt z kierunków zmiennych
Temperatura 9°C
Wilgotność 81%
Ciśnienie 1023 hPa
Widzialność 10 km lub więcej
Przerywane chmury na wysokości 2200 ft

METAR: EDAH 171450Z VRB01KT 9999 BKN022 09/06 Q1023

czas: 13:17 (12:17 UTC)

Prognoza

Raport powstał 22 godziny i 17 minut temu, godzina 14:00 UTC
Prognoza ważna od 17 godzina 15 UTC do 17 godzina 24 UTC
Wiatr 3 kt z kierunków zmiennych
Widzialność 10 km lub więcej
Rozproszone chmury na wysokości 2500 ft
Stopniowe zmiany
od 17 godzina 17 UTC do 17 godzina 20 UTC
Wiatr 6 kt od południowo-południowy wschód
Przejściowo
od 17 godzina 18 UTC do 17 godzina 24 UTC
Widzialność: 4000 m
zamglenie

TAF: EDAH 171400Z 1715/1724 VRB03KT 9999 SCT025 BECMG 1717/1720 15006KT TEMPO 1718/1724 4000 BR

Obserwacja i prognoza pogody dla ponad 4000 lotnisk (raport METAR i TAF).

Dostępne stacje oznaczono żółtymi i czerwonymi punktami na mapie.

Najedź kursorem aby zobaczyć nazwę stacji.

Kliknij aby zobaczyć obserwacje i prognozy pogody.

Aby zmienić mapę: kliknij na zielony przycisk z czarnym krzyżykiem, aby powiększyć; na zielony przycisk z myślnikiem, aby pomniejszyć; na zielone strzałki, aby przejść do map sąsiednich.


METAR-TAF: